createdAt,value
2018-01-11T00:00:19.155Z,7.11
2018-01-11T00:02:46.083Z,7.11
2018-01-11T00:05:12.944Z,7.08
2018-01-11T00:07:39.963Z,7.12
2018-01-11T00:10:06.845Z,7.11
2018-01-11T00:12:34.327Z,7.05
2018-01-11T00:15:01.245Z,7.03
2018-01-11T00:17:29.554Z,6.99
2018-01-11T00:19:57.214Z,7.00
2018-01-11T00:22:24.032Z,6.96
2018-01-11T00:24:51.035Z,6.92
2018-01-11T00:27:17.963Z,6.89
2018-01-11T00:29:45.577Z,6.90
2018-01-11T00:32:12.776Z,6.87
2018-01-11T00:34:39.818Z,6.87
2018-01-11T00:37:07.388Z,6.85
2018-01-11T00:39:34.618Z,6.84
2018-01-11T00:42:01.796Z,6.83
2018-01-11T00:44:28.925Z,6.81
2018-01-11T00:46:56.143Z,6.83
2018-01-11T00:49:23.628Z,6.81
2018-01-11T00:51:51.465Z,6.86
2018-01-11T00:54:18.490Z,6.76
2018-01-11T00:56:48.015Z,6.74
2018-01-11T00:59:15.132Z,6.73
2018-01-11T01:01:44.276Z,6.71
2018-01-11T01:04:11.342Z,6.70
2018-01-11T01:06:38.401Z,6.68
2018-01-11T01:09:06.886Z,6.70
2018-01-11T01:11:35.280Z,6.66
2018-01-11T01:14:05.765Z,6.65
2018-01-11T01:16:34.140Z,6.60
2018-01-11T01:19:01.270Z,6.73
2018-01-11T01:21:30.146Z,6.64
2018-01-11T01:23:57.430Z,6.67
2018-01-11T01:26:25.261Z,6.62
2018-01-11T01:28:52.998Z,6.78
2018-01-11T01:31:20.026Z,6.70
2018-01-11T01:33:46.925Z,6.66
2018-01-11T01:36:14.297Z,6.78
2018-01-11T01:38:43.197Z,6.79
2018-01-11T01:41:10.129Z,6.68
2018-01-11T01:43:36.982Z,6.83
2018-01-11T01:46:04.369Z,6.70
2018-01-11T01:48:43.269Z,6.70
2018-01-11T01:51:11.242Z,6.64
2018-01-11T01:53:38.337Z,6.61
2018-01-11T01:56:06.350Z,6.59
2018-01-11T01:58:33.294Z,6.57
2018-01-11T02:01:00.194Z,6.60
2018-01-11T02:03:27.857Z,6.66
2018-01-11T02:05:55.015Z,6.65
2018-01-11T02:08:21.915Z,6.60
2018-01-11T02:10:49.531Z,6.59
2018-01-11T02:13:16.899Z,6.63
2018-01-11T02:15:52.898Z,6.74
2018-01-11T02:18:23.494Z,6.77
2018-01-11T02:20:53.782Z,6.65
2018-01-11T02:23:24.700Z,6.65
2018-01-11T02:25:57.721Z,6.75
2018-01-11T02:31:11.344Z,6.69
2018-01-11T02:33:43.525Z,6.73
2018-01-11T02:36:11.846Z,6.68
2018-01-11T02:38:47.196Z,6.71
2018-01-11T02:46:53.970Z,6.81
2018-01-11T02:49:46.002Z,6.86
2018-01-11T02:52:16.447Z,6.84
2018-01-11T02:57:20.643Z,6.90
2018-01-11T03:17:56.435Z,6.59
2018-01-11T03:20:24.452Z,6.60
2018-01-11T03:22:57.304Z,6.64
2018-01-11T03:25:25.685Z,6.63
2018-01-11T03:27:54.345Z,6.59
2018-01-11T03:30:23.448Z,6.55
2018-01-11T03:32:51.681Z,6.54
2018-01-11T03:35:19.812Z,6.58
2018-01-11T03:37:48.997Z,6.64
2018-01-11T03:40:16.704Z,6.63
2018-01-11T03:42:44.697Z,6.55
2018-01-11T03:45:12.276Z,6.54
2018-01-11T03:47:39.927Z,6.50
2018-01-11T03:50:07.485Z,6.59
2018-01-11T03:52:35.008Z,6.67
2018-01-11T03:55:02.568Z,6.73
2018-01-11T03:57:31.054Z,6.72
2018-01-11T03:59:58.461Z,6.72
2018-01-11T04:02:43.306Z,6.65
2018-01-11T04:05:10.769Z,6.66
2018-01-11T04:07:39.486Z,6.53
2018-01-11T04:10:07.394Z,6.35
2018-01-11T04:12:34.911Z,6.24
2018-01-11T04:15:02.157Z,6.28
2018-01-11T04:17:29.598Z,6.20
2018-01-11T04:19:57.097Z,6.23
2018-01-11T04:22:25.430Z,6.32
2018-01-11T04:24:52.943Z,6.43
2018-01-11T04:27:22.315Z,6.25
2018-01-11T04:29:49.801Z,6.39
2018-01-11T04:32:17.267Z,6.40
2018-01-11T04:34:46.271Z,6.39
2018-01-11T04:37:13.805Z,6.51
2018-01-11T04:39:44.035Z,6.56
2018-01-11T04:42:13.353Z,6.37
2018-01-11T04:44:41.573Z,6.29
2018-01-11T04:47:14.081Z,6.21
2018-01-11T04:49:42.963Z,6.24
2018-01-11T04:52:10.434Z,6.31
2018-01-11T04:54:44.126Z,6.39
2018-01-11T05:15:11.313Z,6.24
2018-01-11T05:17:42.699Z,6.35
2018-01-11T05:20:13.268Z,6.53
2018-01-11T05:23:03.780Z,6.53
2018-01-11T05:25:38.410Z,6.58
2018-01-11T05:28:08.992Z,6.54
2018-01-11T06:30:32.662Z,6.41
2018-01-11T07:07:24.782Z,6.18
2018-01-11T07:09:55.081Z,6.19
2018-01-11T07:12:26.131Z,6.14
2018-01-11T07:17:33.889Z,6.27
2018-01-11T07:22:40.445Z,6.28
2018-01-11T07:25:09.774Z,6.42
2018-01-11T07:27:43.552Z,6.35
2018-01-11T07:30:11.239Z,6.49
2018-01-11T07:32:41.009Z,6.53
2018-01-11T07:35:17.037Z,6.58
2018-01-11T07:37:44.687Z,6.51
2018-01-11T07:42:50.009Z,6.43
2018-01-11T07:45:23.207Z,6.40
2018-01-11T07:47:54.451Z,6.37
2018-01-11T07:50:26.977Z,6.42
2018-01-11T07:52:54.365Z,6.37
2018-01-11T07:55:21.639Z,6.35
2018-01-11T07:57:49.695Z,6.30
2018-01-11T08:00:17.628Z,6.27
2018-01-11T08:02:45.384Z,6.31
2018-01-11T08:05:12.608Z,6.37
2018-01-11T08:07:39.891Z,6.49
2018-01-11T08:10:07.323Z,6.46
2018-01-11T08:12:36.188Z,6.51
2018-01-11T08:15:04.120Z,6.45
2018-01-11T08:17:31.420Z,6.50
2018-01-11T08:19:59.319Z,6.61
2018-01-11T08:22:26.599Z,6.63
2018-01-11T08:24:54.090Z,6.65
2018-01-11T08:27:21.431Z,6.59
2018-01-11T08:29:49.039Z,6.54
2018-01-11T08:32:16.487Z,6.66
2018-01-11T08:34:43.887Z,6.70
2018-01-11T08:37:11.266Z,6.75
2018-01-11T08:39:38.561Z,6.77
2018-01-11T08:42:06.022Z,6.77
2018-01-11T08:44:33.461Z,6.81
2018-01-11T08:47:00.806Z,6.77
2018-01-11T08:49:28.016Z,6.68
2018-01-11T08:51:55.177Z,6.67
2018-01-11T08:54:22.461Z,6.74
2018-01-11T08:56:49.589Z,6.80
2018-01-11T08:59:19.186Z,6.85
2018-01-11T09:01:47.044Z,6.86
2018-01-11T09:04:14.437Z,6.91
2018-01-11T09:06:42.543Z,6.99
2018-01-11T09:09:09.783Z,7.02
2018-01-11T09:11:37.032Z,7.06
2018-01-11T09:14:04.605Z,7.09
2018-01-11T09:16:31.806Z,7.11
2018-01-11T09:18:58.854Z,7.13
2018-01-11T09:21:26.145Z,7.13
2018-01-11T09:23:53.606Z,7.18
2018-01-11T09:26:20.848Z,7.23
2018-01-11T09:28:49.047Z,7.24
2018-01-11T09:31:16.417Z,7.28
2018-01-11T09:33:43.609Z,7.33
2018-01-11T09:36:10.875Z,7.36
2018-01-11T09:38:38.242Z,7.39
2018-01-11T09:41:06.527Z,7.42
2018-01-11T09:43:34.923Z,7.45
2018-01-11T09:46:02.011Z,7.48
2018-01-11T09:48:29.308Z,7.53
2018-01-11T09:50:57.320Z,7.58
2018-01-11T09:53:24.530Z,7.59
2018-01-11T09:55:51.626Z,7.61
2018-01-11T09:58:19.743Z,7.61
2018-01-11T10:00:47.019Z,7.69
2018-01-11T10:03:13.948Z,7.68
2018-01-11T10:05:40.904Z,7.70
2018-01-11T10:08:07.980Z,7.75
2018-01-11T10:10:35.017Z,7.76
2018-01-11T10:13:02.130Z,7.80
2018-01-11T10:15:29.972Z,7.83
2018-01-11T10:18:00.567Z,7.85
2018-01-11T10:20:28.054Z,7.84
2018-01-11T10:25:35.570Z,7.94
2018-01-11T10:28:02.941Z,7.94
2018-01-11T10:30:30.360Z,7.89
2018-01-11T10:32:58.742Z,7.93
2018-01-11T10:35:26.386Z,8.00
2018-01-11T10:37:54.656Z,7.93
2018-01-11T10:40:23.026Z,7.96
2018-01-11T10:42:50.986Z,8.11
2018-01-11T10:45:23.526Z,8.16
2018-01-11T10:47:53.998Z,8.18
2018-01-11T10:50:23.457Z,8.21
2018-01-11T11:10:52.158Z,8.43
2018-01-11T11:55:48.639Z,8.81
2018-01-11T12:46:09.220Z,9.15
2018-01-11T13:04:20.244Z,9.23
2018-01-11T13:07:18.146Z,9.28
2018-01-11T13:09:50.083Z,9.21
2018-01-11T13:12:17.042Z,9.31
2018-01-11T13:14:44.019Z,9.24
2018-01-11T13:17:12.354Z,9.24
2018-01-11T13:19:39.884Z,9.26
2018-01-11T13:24:39.595Z,9.28
2018-01-11T13:29:43.295Z,9.25
2018-01-11T13:32:10.882Z,9.20
2018-01-11T13:34:38.121Z,9.28
2018-01-11T13:37:15.922Z,9.23
2018-01-11T13:42:38.933Z,9.19
2018-01-11T13:45:17.154Z,9.21
2018-01-11T13:47:50.434Z,9.18
2018-01-11T13:50:20.516Z,9.12
2018-01-11T13:52:51.268Z,9.16
2018-01-11T14:03:57.059Z,9.02
2018-01-11T14:06:26.301Z,9.08
2018-01-11T14:09:01.909Z,9.03
2018-01-11T14:11:42.559Z,9.01
2018-01-11T14:14:29.718Z,8.99
2018-01-11T14:25:19.242Z,8.90
2018-01-11T14:27:55.933Z,8.90
2018-01-11T14:52:21.864Z,8.81
2018-01-11T15:49:36.209Z,8.41
2018-01-11T15:52:29.131Z,8.32
2018-01-11T15:55:07.491Z,8.30
2018-01-11T17:15:37.564Z,7.95
2018-01-11T18:32:58.818Z,7.75
2018-01-11T18:35:27.141Z,7.77
2018-01-11T18:37:56.544Z,7.74
2018-01-11T18:40:24.538Z,7.52
2018-01-11T19:24:33.069Z,7.41
2018-01-11T19:27:01.143Z,7.49
2018-01-11T20:09:19.937Z,7.32
2018-01-11T20:11:49.867Z,7.42
2018-01-11T20:14:20.034Z,7.33
2018-01-11T20:16:55.684Z,7.17
2018-01-11T20:22:00.523Z,7.24
2018-01-11T20:24:30.322Z,7.30
2018-01-11T20:29:38.942Z,7.18
2018-01-11T20:32:07.640Z,7.09
2018-01-11T20:55:27.686Z,7.30
2018-01-11T21:40:28.546Z,6.88
2018-01-11T21:42:55.407Z,6.80
2018-01-11T21:45:22.357Z,6.77
2018-01-11T21:47:50.158Z,6.74
2018-01-11T21:50:17.079Z,6.80
2018-01-11T21:52:43.929Z,6.97
2018-01-11T21:55:10.888Z,7.05
2018-01-11T21:57:39.123Z,7.11
2018-01-11T22:00:06.039Z,7.08
2018-01-11T22:02:32.829Z,6.92
2018-01-11T22:05:00.431Z,6.99
2018-01-11T22:07:27.293Z,6.91
2018-01-11T22:09:54.690Z,6.66
2018-01-11T22:12:21.560Z,6.61
2018-01-11T22:14:48.392Z,6.55
2018-01-11T22:17:15.296Z,6.57
2018-01-11T22:19:42.245Z,6.62
2018-01-11T22:22:09.100Z,6.64
2018-01-11T22:24:36.043Z,6.57
2018-01-11T22:27:02.950Z,6.53
2018-01-11T22:29:29.779Z,6.52
2018-01-11T22:31:56.672Z,6.55
2018-01-11T22:34:23.510Z,6.53
2018-01-11T22:36:50.337Z,6.50
2018-01-11T22:39:17.894Z,6.49
2018-01-11T22:41:44.706Z,6.60
2018-01-11T22:44:11.561Z,6.59
2018-01-11T22:46:38.435Z,6.57
2018-01-11T22:49:05.253Z,6.69
2018-01-11T22:51:32.836Z,6.54
2018-01-11T22:54:00.400Z,6.47
2018-01-11T22:56:27.208Z,6.43
2018-01-11T22:58:54.033Z,6.37
2018-01-11T23:01:21.647Z,6.43
2018-01-11T23:03:48.438Z,6.37
2018-01-11T23:06:15.328Z,6.29
2018-01-11T23:08:42.889Z,6.23
2018-01-11T23:11:09.715Z,6.17
2018-01-11T23:13:36.548Z,6.19
2018-01-11T23:16:03.402Z,6.19
2018-01-11T23:18:30.222Z,6.21
2018-01-11T23:20:56.995Z,6.19
2018-01-11T23:23:23.849Z,6.16
2018-01-11T23:25:51.041Z,6.13
2018-01-11T23:28:17.868Z,6.23
2018-01-11T23:30:44.675Z,6.18
2018-01-11T23:33:12.146Z,6.16
2018-01-11T23:35:38.971Z,6.14
2018-01-11T23:38:05.798Z,6.13
2018-01-11T23:40:32.639Z,6.13
2018-01-11T23:42:59.477Z,6.12
2018-01-11T23:45:27.011Z,6.09
2018-01-11T23:47:53.891Z,6.06
2018-01-11T23:50:20.761Z,6.10
2018-01-11T23:52:47.620Z,6.12
2018-01-11T23:55:14.400Z,6.13
2018-01-11T23:57:42.014Z,6.11
